createdAt,value
2022-08-01T00:01:35.083Z,98048.38
2022-08-01T00:03:39.673Z,98048.25
2022-08-01T00:05:45.489Z,98047.25
2022-08-01T00:07:50.205Z,98045.44
2022-08-01T00:09:54.804Z,98052.56
2022-08-01T00:12:02.114Z,98045.72
2022-08-01T00:14:06.834Z,98045.06
2022-08-01T00:16:11.672Z,98049.53
2022-08-01T00:18:16.242Z,98045.88
2022-08-01T00:20:20.845Z,98046.19
2022-08-01T00:22:25.465Z,98054.16
2022-08-01T00:24:32.847Z,98049.56
2022-08-01T00:26:37.705Z,98055.03
2022-08-01T00:28:45.018Z,98048.22
2022-08-01T00:30:49.652Z,98057.31
2022-08-01T00:32:54.288Z,98061.25
2022-08-01T00:34:59.090Z,98053.69
2022-08-01T00:37:03.702Z,98048.81
2022-08-01T00:39:08.246Z,98051.63
2022-08-01T00:41:12.889Z,98054.28
2022-08-01T00:43:17.806Z,98057.22
2022-08-01T00:45:28.061Z,98048.84
2022-08-01T00:47:32.664Z,98055.88
2022-08-01T00:49:38.064Z,98058.00
2022-08-01T00:51:42.833Z,98055.47
2022-08-01T00:53:51.256Z,98052.38
2022-08-01T00:55:57.204Z,98054.59
2022-08-01T00:58:05.711Z,98056.88
2022-08-01T01:00:11.949Z,98057.28
2022-08-01T01:02:21.969Z,98053.97
2022-08-01T01:04:26.550Z,98053.88
2022-08-01T01:06:34.788Z,98053.06
2022-08-01T01:08:43.456Z,98060.47
2022-08-01T01:10:51.869Z,98057.69
2022-08-01T01:12:59.589Z,98061.56
2022-08-01T01:15:08.178Z,98058.25
2022-08-01T01:17:14.454Z,98063.97
2022-08-01T01:19:24.796Z,98059.66
2022-08-01T01:21:50.297Z,98069.44
2022-08-01T01:23:59.393Z,98060.63
2022-08-01T01:26:18.958Z,98068.16
2022-08-01T01:28:30.320Z,98069.97
2022-08-01T01:30:38.770Z,98063.38
2022-08-01T01:32:45.475Z,98062.00
2022-08-01T01:34:52.555Z,98070.78
2022-08-01T01:36:58.478Z,98062.00
2022-08-01T01:39:04.523Z,98063.25
2022-08-01T01:41:09.739Z,98067.03
2022-08-01T01:43:15.324Z,98063.97
2022-08-01T01:45:20.086Z,98073.19
2022-08-01T01:47:28.582Z,98069.84
2022-08-01T01:49:33.981Z,98067.47
2022-08-01T01:51:38.714Z,98071.91
2022-08-01T01:53:44.656Z,98065.94
2022-08-01T01:55:50.361Z,98068.72
2022-08-01T01:57:56.067Z,98076.09
2022-08-01T02:00:01.217Z,98076.09
2022-08-01T02:02:07.270Z,98080.72
2022-08-01T02:04:15.277Z,98078.78
2022-08-01T02:06:20.468Z,98091.16
2022-08-01T02:08:26.727Z,98087.13
2022-08-01T02:10:32.330Z,98087.97
2022-08-01T02:12:38.757Z,98091.31
2022-08-01T02:14:46.001Z,98092.44
2022-08-01T02:16:52.095Z,98095.78
2022-08-01T02:18:57.534Z,98108.88
2022-08-01T02:21:06.614Z,98107.22
2022-08-01T02:23:17.070Z,98107.06
2022-08-01T02:25:24.295Z,98105.28
2022-08-01T02:27:32.510Z,98104.41
2022-08-01T02:29:41.521Z,98105.41
2022-08-01T02:31:48.907Z,98110.88
2022-08-01T02:33:58.082Z,98111.41
2022-08-01T02:36:32.312Z,98112.25
2022-08-01T02:38:32.767Z,98112.38
2022-08-01T02:40:38.185Z,98115.03
2022-08-01T02:42:45.548Z,98119.78
2022-08-01T02:44:52.137Z,98117.25
2022-08-01T02:47:03.413Z,98124.09
2022-08-01T02:49:10.586Z,98126.91
2022-08-01T02:51:19.436Z,98127.72
2022-08-01T02:53:44.342Z,98124.38
2022-08-01T02:55:50.793Z,98122.56
2022-08-01T02:58:00.229Z,98119.34
2022-08-01T03:00:08.212Z,98125.50
2022-08-01T03:02:15.699Z,98126.47
2022-08-01T03:04:21.590Z,98128.56
2022-08-01T03:06:29.119Z,98126.19
2022-08-01T03:08:34.484Z,98124.66
2022-08-01T03:10:40.565Z,98122.13
2022-08-01T03:12:45.930Z,98123.13
2022-08-01T03:14:55.365Z,98132.06
2022-08-01T03:17:01.805Z,98132.28
2022-08-01T03:19:07.470Z,98127.81
2022-08-01T03:21:14.405Z,98131.19
2022-08-01T03:23:22.851Z,98130.47
2022-08-01T03:25:43.556Z,98118.88
2022-08-01T03:27:50.534Z,98128.06
2022-08-01T03:29:55.910Z,98123.88
2022-08-01T03:32:01.533Z,98124.81
2022-08-01T03:34:06.375Z,98129.28
2022-08-01T03:36:15.817Z,98132.91
2022-08-01T03:38:25.274Z,98133.84
2022-08-01T03:40:34.749Z,98128.84
2022-08-01T03:42:41.223Z,98138.88
2022-08-01T03:44:50.734Z,98137.19
2022-08-01T03:47:00.120Z,98140.25
2022-08-01T03:49:05.963Z,98139.28
2022-08-01T03:51:11.186Z,98140.25
2022-08-01T03:53:17.029Z,98143.03
2022-08-01T03:55:25.403Z,98149.16
2022-08-01T03:57:36.410Z,98152.66
2022-08-01T03:59:42.218Z,98150.38
2022-08-01T04:01:47.072Z,98154.47
2022-08-01T04:03:51.876Z,98158.78
2022-08-01T04:05:56.558Z,98151.66
2022-08-01T04:08:03.208Z,98153.09
2022-08-01T04:10:09.174Z,98151.28
2022-08-01T04:12:16.404Z,98167.06
2022-08-01T04:14:21.020Z,98164.69
2022-08-01T04:16:26.273Z,98160.75
2022-08-01T04:18:30.904Z,98166.16
2022-08-01T04:20:35.500Z,98162.84
2022-08-01T04:22:41.501Z,98165.75
2022-08-01T04:24:53.334Z,98163.53
2022-08-01T04:27:02.153Z,98169.47
2022-08-01T04:29:10.453Z,98171.13
2022-08-01T04:31:17.010Z,98172.56
2022-08-01T04:33:23.220Z,98176.59
2022-08-01T04:36:04.077Z,98176.31
2022-08-01T04:37:54.751Z,98181.06
2022-08-01T04:40:00.704Z,98183.47
2022-08-01T04:42:06.384Z,98185.44
2022-08-01T04:44:13.714Z,98186.44
2022-08-01T04:46:18.955Z,98186.16
2022-08-01T04:48:25.462Z,98189.50
2022-08-01T04:50:30.459Z,98196.75
2022-08-01T04:52:38.845Z,98184.09
2022-08-01T04:54:45.307Z,98184.06
2022-08-01T04:56:51.407Z,98188.81
2022-08-01T04:59:20.176Z,98192.28
2022-08-01T05:01:27.700Z,98197.31
2022-08-01T05:03:35.849Z,98193.84
2022-08-01T05:05:43.272Z,98196.22
2022-08-01T05:07:48.118Z,98198.31
2022-08-01T05:09:52.702Z,98206.53
2022-08-01T05:11:59.335Z,98204.31
2022-08-01T05:14:04.153Z,98205.31
2022-08-01T05:16:08.748Z,98210.72
2022-08-01T05:18:15.966Z,98206.69
2022-08-01T05:20:20.597Z,98212.81
2022-08-01T05:22:26.693Z,98215.19
2022-08-01T05:24:32.144Z,98211.72
2022-08-01T05:26:36.915Z,98212.97
2022-08-01T05:28:41.550Z,98206.28
2022-08-01T05:30:46.148Z,98202.09
2022-08-01T05:32:50.846Z,98209.19
2022-08-01T05:34:58.070Z,98220.06
2022-08-01T05:37:02.826Z,98214.63
2022-08-01T05:39:07.509Z,98215.19
2022-08-01T05:41:12.120Z,98213.09
2022-08-01T05:43:16.665Z,98219.94
2022-08-01T05:45:21.285Z,98219.66
2022-08-01T05:47:25.888Z,98223.16
2022-08-01T05:49:30.517Z,98224.97
2022-08-01T05:51:37.759Z,98219.53
2022-08-01T05:53:42.427Z,98217.00
2022-08-01T05:55:46.966Z,98217.88
2022-08-01T05:57:51.572Z,98225.41
2022-08-01T05:59:56.317Z,98219.28
2022-08-01T06:02:01.068Z,98213.84
2022-08-01T06:04:05.755Z,98213.59
2022-08-01T06:06:10.461Z,98214.97
2022-08-01T06:08:17.685Z,98215.94
2022-08-01T06:10:24.487Z,98213.25
2022-08-01T06:12:32.446Z,98212.03
2022-08-01T06:14:40.034Z,98218.56
2022-08-01T06:16:44.710Z,98226.25
2022-08-01T06:18:51.160Z,98226.25
2022-08-01T06:20:57.422Z,98233.09
2022-08-01T06:23:05.816Z,98232.25
2022-08-01T06:25:29.338Z,98233.63
2022-08-01T06:27:33.932Z,98236.28
2022-08-01T06:29:38.667Z,98237.69
2022-08-01T06:31:43.251Z,98237.97
2022-08-01T06:33:47.846Z,98237.66
2022-08-01T06:35:52.488Z,98236.13
2022-08-01T06:37:57.029Z,98242.81
2022-08-01T06:40:03.985Z,98244.81
2022-08-01T06:44:06.922Z,98238.44
2022-08-01T06:46:11.826Z,98249.50
2022-08-01T06:48:16.814Z,98244.06
2022-08-01T06:50:22.112Z,98252.19
2022-08-01T06:52:27.089Z,98247.66
2022-08-01T06:54:32.282Z,98248.50
2022-08-01T06:56:37.198Z,98248.31
2022-08-01T06:58:42.077Z,98253.25
2022-08-01T07:00:51.000Z,98250.59
2022-08-01T07:03:00.944Z,98247.38
2022-08-01T07:05:05.908Z,98256.53
2022-08-01T07:07:10.661Z,98253.28
2022-08-01T07:09:15.497Z,98254.78
2022-08-01T07:11:20.532Z,98249.56
2022-08-01T07:13:26.055Z,98252.41
2022-08-01T07:15:51.258Z,98255.19
2022-08-01T07:17:58.042Z,98256.94
2022-08-01T07:20:02.946Z,98257.41
2022-08-01T07:22:08.175Z,98256.81
2022-08-01T07:24:19.393Z,98251.41
2022-08-01T07:26:25.659Z,98250.06
2022-08-01T07:28:30.553Z,98247.72
2022-08-01T07:30:35.564Z,98244.25
2022-08-01T07:32:42.816Z,98252.53
2022-08-01T07:34:47.648Z,98248.97
2022-08-01T07:36:52.799Z,98246.78
2022-08-01T07:38:58.030Z,98248.81
2022-08-01T07:41:03.494Z,98253.66
2022-08-01T07:43:08.141Z,98247.59
2022-08-01T07:45:15.373Z,98245.84
2022-08-01T07:47:20.248Z,98256.19
2022-08-01T07:49:27.818Z,98253.72
2022-08-01T07:51:32.823Z,98251.59
2022-08-01T07:53:37.379Z,98250.66
2022-08-01T07:55:42.239Z,98255.13
2022-08-01T07:57:50.972Z,98252.13
2022-08-01T07:59:55.938Z,98253.72
2022-08-01T08:02:00.682Z,98250.16
2022-08-01T08:04:06.201Z,98253.66
2022-08-01T08:06:13.994Z,98255.50
2022-08-01T08:08:19.373Z,98249.66
2022-08-01T08:10:26.810Z,98257.31
2022-08-01T08:12:31.656Z,98256.47
2022-08-01T08:14:36.613Z,98262.66
2022-08-01T08:16:41.543Z,98255.50
2022-08-01T08:18:46.379Z,98254.25
2022-08-01T08:20:51.302Z,98253.78
2022-08-01T08:22:59.586Z,98252.84
2022-08-01T08:25:04.554Z,98252.03
2022-08-01T08:27:12.558Z,98247.06
2022-08-01T08:29:17.941Z,98249.94
2022-08-01T08:31:51.459Z,98250.06
2022-08-01T08:33:50.751Z,98254.38
2022-08-01T08:35:55.873Z,98250.22
2022-08-01T08:38:03.450Z,98250.63
2022-08-01T08:40:10.196Z,98239.28
2022-08-01T08:42:15.640Z,98255.56
2022-08-01T08:44:21.673Z,98248.84
2022-08-01T08:46:28.908Z,98247.69
2022-08-01T08:48:34.765Z,98258.91
2022-08-01T08:50:40.857Z,98250.03
2022-08-01T08:52:47.203Z,98251.59
2022-08-01T08:54:56.222Z,98247.00
2022-08-01T08:57:02.630Z,98246.78
2022-08-01T08:59:08.288Z,98242.41
2022-08-01T09:01:13.610Z,98245.22
2022-08-01T09:03:18.718Z,98252.03
2022-08-01T09:05:38.781Z,98246.69
2022-08-01T09:07:43.870Z,98244.25
2022-08-01T09:09:50.230Z,98252.78
2022-08-01T09:11:59.497Z,98253.63
2022-08-01T09:14:10.149Z,98249.63
2022-08-01T09:16:20.998Z,98255.56
2022-08-01T09:18:35.173Z,98259.94
2022-08-01T09:20:40.055Z,98256.31
2022-08-01T09:22:47.662Z,98255.59
2022-08-01T09:25:04.296Z,98258.97
2022-08-01T09:27:24.993Z,98258.50
2022-08-01T09:29:38.072Z,98263.06
2022-08-01T09:31:47.534Z,98254.97
2022-08-01T09:33:55.812Z,98262.88
2022-08-01T09:36:03.843Z,98252.38
2022-08-01T09:38:23.121Z,98254.59
2022-08-01T09:40:27.962Z,98257.59
2022-08-01T09:42:35.495Z,98260.91
2022-08-01T09:44:45.637Z,98262.38
2022-08-01T09:47:00.573Z,98263.47
2022-08-01T09:49:12.801Z,98259.34
2022-08-01T09:51:59.107Z,98255.06
2022-08-01T09:53:57.110Z,98261.03
2022-08-01T09:56:13.534Z,98263.13
2022-08-01T09:58:21.669Z,98258.28
2022-08-01T10:00:44.229Z,98252.63
2022-08-01T10:02:49.987Z,98245.22
2022-08-01T10:04:59.978Z,98237.44
2022-08-01T10:07:11.045Z,98241.78
2022-08-01T10:09:18.514Z,98233.78
2022-08-01T10:11:23.657Z,98235.47
2022-08-01T10:13:44.535Z,98235.00
2022-08-01T10:15:50.189Z,98233.34
2022-08-01T10:17:58.061Z,98238.78
2022-08-01T10:20:05.627Z,98245.25
2022-08-01T10:22:28.209Z,98242.22
2022-08-01T10:24:34.601Z,98240.34
2022-08-01T10:26:41.360Z,98232.88
2022-08-01T10:28:52.442Z,98234.59
2022-08-01T10:30:58.285Z,98221.91
2022-08-01T10:33:04.256Z,98227.78
2022-08-01T10:35:15.800Z,98223.28
2022-08-01T10:37:21.026Z,98221.97
2022-08-01T10:39:27.403Z,98219.97
2022-08-01T10:41:37.082Z,98216.28
2022-08-01T10:43:49.216Z,98221.81
2022-08-01T10:45:55.016Z,98219.13
2022-08-01T10:48:10.812Z,98214.28
2022-08-01T10:50:25.994Z,98214.91
2022-08-01T10:52:30.861Z,98212.44
2022-08-01T10:54:52.624Z,98212.91
2022-08-01T10:56:58.580Z,98207.38
2022-08-01T10:59:11.750Z,98216.06
2022-08-01T11:01:25.922Z,98214.72
2022-08-01T11:03:56.493Z,98217.09
2022-08-01T11:06:02.385Z,98214.28
2022-08-01T11:08:12.866Z,98219.47
2022-08-01T11:10:28.409Z,98218.31
2022-08-01T11:12:44.049Z,98213.13
2022-08-01T11:15:29.401Z,98212.94
2022-08-01T11:17:42.531Z,98215.91
2022-08-01T11:20:09.893Z,98213.38
2022-08-01T11:22:14.818Z,98209.38
2022-08-01T11:24:21.620Z,98205.38
2022-08-01T11:26:29.070Z,98208.03
2022-08-01T11:28:35.788Z,98200.16
2022-08-01T11:30:41.677Z,98200.72
2022-08-01T11:33:11.067Z,98197.34
2022-08-01T11:35:17.758Z,98196.88
2022-08-01T11:37:31.200Z,98191.44
2022-08-01T11:39:38.864Z,98196.41
2022-08-01T11:41:45.309Z,98193.97
2022-08-01T11:44:09.126Z,98188.66
2022-08-01T11:46:14.082Z,98189.59
2022-08-01T11:48:28.405Z,98198.22
2022-08-01T11:50:40.299Z,98192.28
2022-08-01T11:52:46.686Z,98200.88
2022-08-01T11:54:55.550Z,98197.91
2022-08-01T11:57:03.703Z,98203.75
2022-08-01T11:59:14.989Z,98196.75
2022-08-01T12:01:23.617Z,98192.69
2022-08-01T12:03:36.635Z,98191.63
2022-08-01T12:05:43.197Z,98194.03
2022-08-01T12:07:48.858Z,98185.84
2022-08-01T12:10:01.704Z,98186.38
2022-08-01T12:12:07.397Z,98184.16
2022-08-01T12:14:12.418Z,98179.81
2022-08-01T12:16:19.217Z,98179.50
2022-08-01T12:18:31.401Z,98182.03
2022-08-01T12:20:38.140Z,98187.03
2022-08-01T12:22:45.142Z,98172.53
2022-08-01T12:24:50.047Z,98179.41
2022-08-01T12:26:54.605Z,98183.47
2022-08-01T12:28:59.589Z,98184.75
2022-08-01T12:31:04.458Z,98177.56
2022-08-01T12:33:13.298Z,98177.88
2022-08-01T12:35:24.251Z,98176.16
2022-08-01T12:37:29.646Z,98176.66
2022-08-01T12:39:40.147Z,98173.09
2022-08-01T12:41:47.521Z,98173.63
2022-08-01T12:43:52.464Z,98167.31
2022-08-01T12:45:58.180Z,98163.59
2022-08-01T12:48:03.528Z,98165.19
2022-08-01T12:50:11.847Z,98171.44
2022-08-01T12:52:26.599Z,98162.41
2022-08-01T12:54:32.240Z,98163.94
2022-08-01T12:56:37.555Z,98172.28
2022-08-01T12:58:42.840Z,98177.00
2022-08-01T13:00:49.149Z,98171.66
2022-08-01T13:03:03.886Z,98178.66
2022-08-01T13:05:10.678Z,98176.28
2022-08-01T13:07:15.466Z,98168.63
2022-08-01T13:09:23.170Z,98167.88
2022-08-01T13:11:30.991Z,98169.91
2022-08-01T13:13:43.127Z,98175.19
2022-08-01T13:15:48.528Z,98163.81
2022-08-01T13:17:54.052Z,98164.03
2022-08-01T13:19:59.224Z,98155.56
2022-08-01T13:22:04.113Z,98149.91
2022-08-01T13:24:10.696Z,98147.22
2022-08-01T13:26:20.559Z,98145.94
2022-08-01T13:28:27.503Z,98141.59
2022-08-01T13:30:32.416Z,98148.59
2022-08-01T13:32:37.139Z,98147.53
2022-08-01T13:34:42.009Z,98142.72
2022-08-01T13:36:49.575Z,98144.84
2022-08-01T13:39:07.120Z,98144.94
2022-08-01T13:41:23.220Z,98139.78
2022-08-01T13:43:33.036Z,98141.75
2022-08-01T13:45:53.574Z,98138.19
2022-08-01T13:48:11.981Z,98138.00
2022-08-01T13:50:20.680Z,98138.19
2022-08-01T13:52:25.606Z,98140.88
2022-08-01T13:54:30.241Z,98130.81
2022-08-01T13:56:38.334Z,98137.69
2022-08-01T13:58:43.256Z,98132.31
2022-08-01T14:00:49.925Z,98131.13
2022-08-01T14:02:55.256Z,98138.56
2022-08-01T14:05:00.116Z,98135.53
2022-08-01T14:07:10.671Z,98129.28
2022-08-01T14:09:23.803Z,98130.94
2022-08-01T14:11:33.937Z,98129.28
2022-08-01T14:13:46.814Z,98125.34
2022-08-01T14:15:51.857Z,98131.66
2022-08-01T14:17:59.637Z,98132.81
2022-08-01T14:20:06.277Z,98133.63
2022-08-01T14:22:11.175Z,98132.53
2022-08-01T14:24:15.697Z,98130.28
2022-08-01T14:26:20.556Z,98131.59
2022-08-01T14:28:25.299Z,98135.13
2022-08-01T14:30:33.117Z,98134.19
2022-08-01T14:32:38.544Z,98135.66
2022-08-01T14:34:43.366Z,98135.88
2022-08-01T14:36:48.466Z,98139.00
2022-08-01T14:38:54.386Z,98141.50
2022-08-01T14:41:06.423Z,98144.25
2022-08-01T14:43:25.036Z,98140.41
2022-08-01T14:45:34.711Z,98141.34
2022-08-01T14:47:39.989Z,98138.63
2022-08-01T14:49:45.658Z,98150.28
2022-08-01T14:51:50.728Z,98152.22
2022-08-01T14:53:55.415Z,98141.06
2022-08-01T14:56:00.338Z,98146.44
2022-08-01T14:58:04.925Z,98140.56
2022-08-01T15:00:12.555Z,98128.69
2022-08-01T15:02:20.630Z,98140.91
2022-08-01T15:04:25.460Z,98138.59
2022-08-01T15:06:30.368Z,98135.16
2022-08-01T15:08:37.242Z,98131.41
2022-08-01T15:10:41.785Z,98131.72
2022-08-01T15:12:50.481Z,98135.03
2022-08-01T15:14:55.764Z,98130.56
2022-08-01T15:17:00.657Z,98134.88
2022-08-01T15:19:07.872Z,98128.41
2022-08-01T15:21:29.282Z,98135.09
2022-08-01T15:23:37.612Z,98135.81
2022-08-01T15:25:42.557Z,98138.22
2022-08-01T15:27:47.447Z,98135.19
2022-08-01T15:29:53.231Z,98136.38
2022-08-01T15:31:58.435Z,98133.72
2022-08-01T15:34:03.807Z,98132.81
2022-08-01T15:36:12.502Z,98132.44
2022-08-01T15:38:20.478Z,98133.38
2022-08-01T15:40:25.378Z,98140.63
2022-08-01T15:42:30.287Z,98140.75
2022-08-01T15:44:35.418Z,98143.69
2022-08-01T15:46:40.327Z,98139.81
2022-08-01T15:48:45.223Z,98139.66
2022-08-01T15:50:51.558Z,98135.47
2022-08-01T15:52:58.943Z,98132.81
2022-08-01T15:55:03.868Z,98129.22
2022-08-01T15:57:09.511Z,98122.91
2022-08-01T15:59:16.225Z,98138.94
2022-08-01T16:01:22.156Z,98133.06
2022-08-01T16:03:27.839Z,98136.34
2022-08-01T16:05:32.676Z,98127.03
2022-08-01T16:07:37.294Z,98124.44
2022-08-01T16:10:04.744Z,98124.63
2022-08-01T16:12:10.511Z,98121.19
2022-08-01T16:14:15.448Z,98126.53
2022-08-01T16:16:20.610Z,98126.66
2022-08-01T16:18:25.562Z,98125.41
2022-08-01T16:20:30.097Z,98124.25
2022-08-01T16:22:36.810Z,98115.59
2022-08-01T16:24:41.652Z,98114.66
2022-08-01T16:26:48.798Z,98115.25
2022-08-01T16:28:54.619Z,98117.78
2022-08-01T16:31:17.049Z,98112.81
2022-08-01T16:33:40.197Z,98109.38
2022-08-01T16:35:49.398Z,98115.09
2022-08-01T16:37:55.601Z,98114.34
2022-08-01T16:40:00.529Z,98114.34
2022-08-01T16:42:08.258Z,98114.50
2022-08-01T16:44:15.664Z,98119.00
2022-08-01T16:46:25.336Z,98117.34
2022-08-01T16:48:30.445Z,98119.69
2022-08-01T16:50:34.984Z,98132.44
2022-08-01T16:52:42.776Z,98127.22
2022-08-01T16:54:47.728Z,98131.13
2022-08-01T16:56:52.654Z,98124.31
2022-08-01T16:59:00.203Z,98127.53
2022-08-01T17:02:00.238Z,98126.91
2022-08-01T17:03:52.350Z,98137.09
2022-08-01T17:05:54.826Z,98126.69
2022-08-01T17:07:59.758Z,98131.53
2022-08-01T17:10:04.939Z,98127.00
2022-08-01T17:12:10.782Z,98129.63
2022-08-01T17:14:18.762Z,98127.16
2022-08-01T17:16:23.688Z,98128.53
2022-08-01T17:18:28.253Z,98125.38
2022-08-01T17:20:33.364Z,98127.06
2022-08-01T17:22:38.285Z,98123.47
2022-08-01T17:24:42.958Z,98129.75
2022-08-01T17:26:47.798Z,98129.59
2022-08-01T17:28:52.698Z,98125.56
2022-08-01T17:31:00.115Z,98132.28
2022-08-01T17:33:04.979Z,98132.28
2022-08-01T17:35:09.819Z,98137.84
2022-08-01T17:37:14.769Z,98138.56
2022-08-01T17:39:23.891Z,98140.28
2022-08-01T17:41:44.288Z,98148.19
2022-08-01T17:43:49.150Z,98150.03
2022-08-01T17:45:54.501Z,98151.56
2022-08-01T17:48:01.943Z,98149.72
2022-08-01T17:50:08.691Z,98156.25
2022-08-01T17:52:13.673Z,98154.03
2022-08-01T17:54:18.528Z,98163.09
2022-08-01T17:56:23.418Z,98165.09
2022-08-01T17:58:48.870Z,98165.44
2022-08-01T18:00:53.199Z,98162.75
2022-08-01T18:02:58.077Z,98168.94
2022-08-01T18:05:10.773Z,98171.97
2022-08-01T18:07:16.322Z,98168.81
2022-08-01T18:09:22.274Z,98170.28
2022-08-01T18:11:27.992Z,98176.16
2022-08-01T18:13:32.871Z,98175.31
2022-08-01T18:15:37.779Z,98173.00
2022-08-01T18:17:42.661Z,98174.69
2022-08-01T18:19:47.541Z,98176.88
2022-08-01T18:21:55.035Z,98180.72
2022-08-01T18:24:01.508Z,98178.53
2022-08-01T18:26:08.681Z,98183.88
2022-08-01T18:28:29.499Z,98181.75
2022-08-01T18:30:38.483Z,98186.25
2022-08-01T18:32:43.518Z,98183.06
2022-08-01T18:34:48.520Z,98183.75
2022-08-01T18:36:56.545Z,98178.94
2022-08-01T18:39:04.755Z,98183.44
2022-08-01T18:41:11.050Z,98185.25
2022-08-01T18:43:16.562Z,98184.13
2022-08-01T18:45:21.508Z,98193.44
2022-08-01T18:47:26.109Z,98192.25
2022-08-01T18:49:31.116Z,98192.09
2022-08-01T18:51:38.840Z,98194.25
2022-08-01T18:53:52.537Z,98189.22
2022-08-01T18:55:57.596Z,98203.59
2022-08-01T18:58:02.548Z,98210.09
2022-08-01T19:00:09.245Z,98216.09
2022-08-01T19:02:14.340Z,98215.25
2022-08-01T19:04:18.887Z,98211.75
2022-08-01T19:06:27.271Z,98222.75
2022-08-01T19:08:32.258Z,98223.91
2022-08-01T19:10:39.484Z,98227.06
2022-08-01T19:12:44.346Z,98231.91
2022-08-01T19:14:51.239Z,98234.06
2022-08-01T19:16:56.563Z,98228.72
2022-08-01T19:19:01.563Z,98229.88
2022-08-01T19:21:09.714Z,98240.72
2022-08-01T19:23:27.242Z,98238.03
2022-08-01T19:25:32.240Z,98235.53
2022-08-01T19:28:01.803Z,98236.84
2022-08-01T19:30:07.778Z,98237.00
2022-08-01T19:32:13.098Z,98246.84
2022-08-01T19:34:26.741Z,98238.69
2022-08-01T19:36:31.868Z,98239.69
2022-08-01T19:38:38.787Z,98243.34
2022-08-01T19:40:44.677Z,98247.03
2022-08-01T19:42:49.751Z,98237.47
2022-08-01T19:44:59.097Z,98249.31
2022-08-01T19:47:04.877Z,98248.78
2022-08-01T19:49:10.282Z,98246.44
2022-08-01T19:51:20.594Z,98237.75
2022-08-01T19:53:27.886Z,98249.59
2022-08-01T19:55:37.625Z,98243.75
2022-08-01T19:57:47.480Z,98248.25
2022-08-01T20:00:00.357Z,98245.03
2022-08-01T20:02:06.021Z,98247.19
2022-08-01T20:04:11.807Z,98245.88
2022-08-01T20:06:16.722Z,98249.69
2022-08-01T20:08:23.473Z,98246.78
2022-08-01T20:10:30.123Z,98243.16
2022-08-01T20:12:35.942Z,98238.97
2022-08-01T20:14:41.153Z,98248.13
2022-08-01T20:16:49.455Z,98234.97
2022-08-01T20:18:54.412Z,98240.59
2022-08-01T20:21:03.255Z,98232.25
2022-08-01T20:23:17.860Z,98242.41
2022-08-01T20:25:25.334Z,98244.00
2022-08-01T20:27:32.789Z,98242.66
2022-08-01T20:29:39.077Z,98243.91
2022-08-01T20:31:50.347Z,98238.91
2022-08-01T20:33:59.322Z,98243.03
2022-08-01T20:36:11.987Z,98238.00
2022-08-01T20:38:29.902Z,98242.50
2022-08-01T20:40:35.157Z,98242.50
2022-08-01T20:42:40.907Z,98240.00
2022-08-01T20:44:47.286Z,98246.31
2022-08-01T20:46:53.345Z,98246.50
2022-08-01T20:49:01.621Z,98246.63
2022-08-01T20:51:16.155Z,98253.28
2022-08-01T20:53:22.253Z,98257.38
2022-08-01T20:55:35.028Z,98269.50
2022-08-01T20:57:41.767Z,98264.63
2022-08-01T20:59:56.588Z,98275.75
2022-08-01T21:02:10.197Z,98273.69
2022-08-01T21:04:37.868Z,98281.44
2022-08-01T21:06:46.617Z,98281.53
2022-08-01T21:08:52.664Z,98287.72
2022-08-01T21:11:00.983Z,98288.31
2022-08-01T21:13:08.069Z,98294.91
2022-08-01T21:15:18.049Z,98300.72
2022-08-01T21:17:35.635Z,98303.66
2022-08-01T21:19:47.347Z,98309.28
2022-08-01T21:22:00.400Z,98308.72
2022-08-01T21:24:09.264Z,98310.72
2022-08-01T21:26:16.061Z,98319.13
2022-08-01T21:28:21.726Z,98314.09
2022-08-01T21:30:27.894Z,98319.03
2022-08-01T21:32:33.093Z,98315.84
2022-08-01T21:34:39.709Z,98314.69
2022-08-01T21:36:48.781Z,98317.91
2022-08-01T21:38:53.732Z,98312.28
2022-08-01T21:40:58.796Z,98319.13
2022-08-01T21:43:05.172Z,98314.81
2022-08-01T21:45:17.606Z,98319.25
2022-08-01T21:47:25.919Z,98317.59
2022-08-01T21:49:31.383Z,98315.09
2022-08-01T21:51:51.852Z,98313.81
2022-08-01T21:54:10.185Z,98311.00
2022-08-01T21:56:29.619Z,98312.50
2022-08-01T21:58:37.281Z,98319.53
2022-08-01T22:00:46.648Z,98318.41
2022-08-01T22:02:55.092Z,98314.59
2022-08-01T22:05:06.021Z,98316.56
2022-08-01T22:07:17.336Z,98320.66
2022-08-01T22:09:23.282Z,98316.75
2022-08-01T22:11:31.061Z,98311.75
2022-08-01T22:13:37.026Z,98320.84
2022-08-01T22:15:45.469Z,98311.50
2022-08-01T22:17:52.034Z,98317.25
2022-08-01T22:19:57.740Z,98320.22
2022-08-01T22:22:04.671Z,98315.88
2022-08-01T22:24:32.484Z,98320.63
2022-08-01T22:26:40.412Z,98321.09
2022-08-01T22:28:46.572Z,98320.56
2022-08-01T22:30:54.649Z,98322.91
2022-08-01T22:33:15.690Z,98328.97
2022-08-01T22:35:23.519Z,98317.22
2022-08-01T22:37:55.913Z,98320.16
2022-08-01T22:39:56.877Z,98309.28
2022-08-01T22:42:05.978Z,98319.09
2022-08-01T22:44:12.352Z,98323.28
2022-08-01T22:46:27.375Z,98320.78
2022-08-01T22:48:39.039Z,98321.38
2022-08-01T22:50:47.815Z,98326.97
2022-08-01T22:53:00.082Z,98324.56
2022-08-01T22:55:10.877Z,98322.06
2022-08-01T22:57:27.197Z,98329.19
2022-08-01T22:59:42.625Z,98319.81
2022-08-01T23:01:51.748Z,98321.94
2022-08-01T23:04:00.075Z,98322.22
2022-08-01T23:06:06.520Z,98319.72
2022-08-01T23:08:14.886Z,98325.16
2022-08-01T23:10:24.874Z,98322.25
2022-08-01T23:12:30.684Z,98314.09
2022-08-01T23:14:36.185Z,98324.03
2022-08-01T23:16:43.125Z,98322.91
2022-08-01T23:18:49.335Z,98323.63
2022-08-01T23:20:55.477Z,98327.22
2022-08-01T23:23:00.668Z,98331.97
2022-08-01T23:25:08.406Z,98333.78
2022-08-01T23:28:03.690Z,98340.75
2022-08-01T23:29:56.849Z,98337.84
2022-08-01T23:32:03.489Z,98338.81
2022-08-01T23:34:08.735Z,98336.56
2022-08-01T23:36:14.776Z,98331.53
2022-08-01T23:38:20.459Z,98329.88
2022-08-01T23:40:25.566Z,98347.03
2022-08-01T23:42:32.765Z,98340.44
2022-08-01T23:44:37.960Z,98344.75
2022-08-01T23:46:42.823Z,98344.19
2022-08-01T23:48:47.718Z,98340.94
2022-08-01T23:50:52.578Z,98334.63
2022-08-01T23:52:57.956Z,98329.88
2022-08-01T23:55:14.919Z,98329.28
2022-08-01T23:57:20.337Z,98331.50
2022-08-01T23:59:52.528Z,98325.78
